Time;durP1;ratioP1;P1;durP2;ratioP2;P2;SDS_P1;SDS_P2;PMS_P1;PMS_P2;Temp;Humidity;BMP_temperature;BMP_pressure;BME280_temperature;BME280_humidity;BME280_pressure;Samples;Min_cycle;Max_cycle;Signal;HPM_P1;HPM_P2
2023/08/08 00:01:53;;;;;;;2.03;0.90;;;;;;;16.59;85.59;101531.09;4995957;28;96783;-27
2023/08/08 00:04:18;;;;;;;3.53;0.85;;;;;;;16.64;85.72;101522.53;4995745;28;97921;-26
2023/08/08 00:06:43;;;;;;;2.08;0.80;;;;;;;16.66;86.25;101512.31;4995617;28;97710;-26
2023/08/08 00:09:09;;;;;;;3.20;0.95;;;;;;;16.68;86.35;101513.09;4995905;28;96419;-27
2023/08/08 00:11:34;;;;;;;3.13;1.00;;;;;;;16.64;85.37;101506.13;4995568;28;96809;-27
2023/08/08 00:13:59;;;;;;;5.93;1.10;;;;;;;16.70;85.93;101509.25;4995237;28;99284;-27
2023/08/08 00:16:25;;;;;;;2.42;1.00;;;;;;;16.69;86.24;101509.38;4995653;28;99468;-27
2023/08/08 00:18:53;;;;;;;5.40;0.68;;;;;;;16.68;85.67;101507.63;4995757;28;96734;-27
2023/08/08 00:21:19;;;;;;;8.02;0.93;;;;;;;16.71;86.21;101524.69;4994152;28;96835;-26
2023/08/08 00:23:44;;;;;;;2.00;0.73;;;;;;;16.70;85.77;101513.84;4994848;28;98020;-26
2023/08/08 00:26:09;;;;;;;4.65;1.00;;;;;;;16.70;85.54;101509.25;4994669;28;97792;-27
2023/08/08 00:28:35;;;;;;;5.57;1.25;;;;;;;16.71;85.80;101502.78;4995691;28;96773;-27
2023/08/08 00:31:00;;;;;;;1.30;0.60;;;;;;;16.77;85.37;101512.38;4994225;28;96905;-27
2023/08/08 00:33:25;;;;;;;0.75;0.32;;;;;;;16.74;86.26;101512.63;4995022;28;99383;-27
2023/08/08 00:35:51;;;;;;;2.72;0.90;;;;;;;16.76;86.08;101513.38;4995058;28;99133;-26
2023/08/08 00:38:18;;;;;;;4.63;0.80;;;;;;;16.72;86.27;101498.19;4995651;28;96861;-27
2023/08/08 00:40:44;;;;;;;3.22;0.55;;;;;;;16.75;86.04;101511.63;4994192;28;96820;-27
2023/08/08 00:43:09;;;;;;;1.13;0.98;;;;;;;16.76;85.77;101510.66;4993655;28;100992;-28
2023/08/08 00:45:34;;;;;;;1.88;0.77;;;;;;;16.75;86.42;101514.38;4994454;28;97785;-26
2023/08/08 00:48:00;;;;;;;5.47;1.08;;;;;;;16.78;86.80;101516.88;4994983;28;96752;-28
2023/08/08 00:50:26;;;;;;;3.03;0.98;;;;;;;16.76;86.85;101513.38;4995090;28;96791;-27
2023/08/08 00:52:52;;;;;;;2.25;0.80;;;;;;;16.80;87.12;101514.91;4993388;28;101026;-27
2023/08/08 00:55:18;;;;;;;5.63;1.10;;;;;;;16.75;86.64;101507.00;4994512;28;99136;-27
2023/08/08 00:57:43;;;;;;;2.75;1.00;;;;;;;16.74;85.82;101496.22;4995490;28;96559;-27
2023/08/08 01:00:10;;;;;;;1.45;0.65;;;;;;;16.79;85.47;101504.97;4994945;28;96874;-27
2023/08/08 01:02:35;;;;;;;3.30;0.82;;;;;;;16.79;85.95;101501.38;4993138;28;101436;-27
2023/08/08 01:05:02;;;;;;;3.83;0.93;;;;;;;16.75;86.08;101496.06;4995263;28;97793;-26
2023/08/08 01:08:03;;;;;;;2.58;0.90;;;;;;;16.73;85.82;101500.81;4993440;28;96627;-27
2023/08/08 01:10:36;;;;;;;3.15;0.85;;;;;;;16.71;85.64;101501.94;4993623;28;96837;-27
2023/08/08 01:13:10;;;;;;;2.28;0.90;;;;;;;16.72;85.45;101501.78;4994400;28;97999;-27
2023/08/08 01:15:36;;;;;;;2.95;0.88;;;;;;;16.66;84.86;101488.59;4994639;28;98808;-27
2023/08/08 01:18:05;;;;;;;4.45;0.90;;;;;;;16.67;85.04;101497.69;4994985;28;96483;-27
2023/08/08 01:20:35;;;;;;;6.38;0.98;;;;;;;16.70;84.58;101503.78;4993430;28;96903;-27
2023/08/08 01:23:13;;;;;;;1.27;0.77;;;;;;;16.71;84.27;101501.94;4994522;28;98152;-28
2023/08/08 01:25:40;;;;;;;3.85;1.20;;;;;;;16.65;84.25;101500.53;4993166;28;101271;-27
2023/08/08 01:28:06;;;;;;;2.28;0.82;;;;;;;16.67;84.22;101509.47;4993188;28;96666;-27
2023/08/08 01:30:32;;;;;;;1.67;0.68;;;;;;;16.69;84.26;101512.13;4993512;28;96835;-27
2023/08/08 01:32:57;;;;;;;3.35;0.77;;;;;;;16.67;84.37;101516.81;4994552;28;98584;-27
2023/08/08 01:35:25;;;;;;;2.53;0.70;;;;;;;16.67;84.14;101517.69;4994506;28;96473;-27
2023/08/08 01:37:56;;;;;;;2.83;1.10;;;;;;;16.64;83.99;101504.25;4994330;28;96611;-27
2023/08/08 01:40:24;;;;;;;3.33;0.75;;;;;;;16.64;84.02;101500.66;4996767;28;96747;-27
2023/08/08 01:42:50;;;;;;;1.83;0.95;;;;;;;16.62;83.69;101491.69;4996216;28;101390;-28
2023/08/08 01:45:16;;;;;;;2.33;0.77;;;;;;;16.59;83.52;101494.63;4995898;28;100737;-27
2023/08/08 01:47:42;;;;;;;1.40;0.75;;;;;;;16.50;84.06;101491.63;4996602;28;96588;-26
2023/08/08 01:50:08;;;;;;;0.80;0.60;;;;;;;16.54;84.07;101503.19;4998136;28;96821;-27
2023/08/08 01:52:34;;;;;;;2.35;0.82;;;;;;;16.52;84.01;101500.59;4996216;28;100993;-27
2023/08/08 01:54:59;;;;;;;1.20;0.63;;;;;;;16.45;83.76;101488.38;4998172;28;97943;-26
2023/08/08 01:57:25;;;;;;;1.70;0.63;;;;;;;16.46;83.58;101498.31;4998069;28;96638;-27
2023/08/08 01:59:50;;;;;;;1.52;0.88;;;;;;;16.46;83.67;101494.72;4997561;28;96833;-27
2023/08/08 02:02:17;;;;;;;3.05;0.77;;;;;;;16.40;83.48;101490.59;4997081;28;97906;-27
2023/08/08 02:04:43;;;;;;;0.80;0.60;;;;;;;16.38;83.24;101492.56;4996041;28;100961;-27
2023/08/08 02:07:08;;;;;;;1.45;0.60;;;;;;;16.33;83.04;101483.84;4979578;28;96752;-26
2023/08/08 02:09:33;;;;;;;1.00;0.63;;;;;;;16.29;83.18;101476.88;4997536;28;96888;-27
2023/08/08 02:11:59;;;;;;;1.83;0.40;;;;;;;16.35;82.92;101495.50;4997462;28;96790;-27
2023/08/08 02:14:24;;;;;;;4.10;0.60;;;;;;;16.31;83.20;101485.81;4997212;28;97833;-26
2023/08/08 02:16:49;;;;;;;1.27;0.77;;;;;;;16.23;83.27;101477.31;4997548;28;96572;-27
2023/08/08 02:19:15;;;;;;;2.13;0.75;;;;;;;16.18;83.40;101476.78;4997990;28;96779;-27
2023/08/08 02:21:40;;;;;;;0.82;0.57;;;;;;;16.14;83.19;101477.03;4997191;28;99344;-27
2023/08/08 02:24:06;;;;;;;1.33;0.82;;;;;;;16.17;82.91;101480.53;4997192;28;97829;-27
2023/08/08 02:26:31;;;;;;;1.27;0.77;;;;;;;16.09;82.77;101481.97;4996985;28;96450;-27
2023/08/08 02:28:56;;;;;;;1.13;0.45;;;;;;;16.08;82.73;101480.22;4997056;28;96841;-27
2023/08/08 02:31:22;;;;;;;1.08;0.65;;;;;;;16.05;82.68;101491.38;4997250;28;97432;-27
2023/08/08 02:33:49;;;;;;;1.27;0.55;;;;;;;16.08;82.54;101495.75;4997280;28;97920;-27
2023/08/08 02:36:14;;;;;;;4.30;0.90;;;;;;;16.05;82.06;101495.97;4997510;28;96468;-27
2023/08/08 02:38:40;;;;;;;2.58;0.68;;;;;;;16.05;82.25;101491.38;4996898;28;96834;-27
2023/08/08 02:41:05;;;;;;;1.63;0.63;;;;;;;16.05;81.83;101487.78;4997096;28;97433;-27
2023/08/08 02:43:32;;;;;;;0.73;0.40;;;;;;;16.00;81.78;101476.31;4997361;28;97802;-27
2023/08/08 02:45:57;;;;;;;0.60;0.47;;;;;;;16.00;81.27;101482.66;4997319;28;96476;-27
2023/08/08 02:48:22;;;;;;;0.80;0.57;;;;;;;16.03;81.36;101478.81;4996961;28;96864;-27
2023/08/08 02:50:48;;;;;;;0.85;0.55;;;;;;;15.95;81.14;101471.19;4996154;28;99468;-27
2023/08/08 02:53:13;;;;;;;1.40;0.77;;;;;;;15.97;80.93;101477.44;4996906;28;97254;-27
2023/08/08 02:55:38;;;;;;;0.52;0.22;;;;;;;15.90;80.60;101471.53;4995726;28;96810;-28
2023/08/08 02:58:04;;;;;;;1.15;0.40;;;;;;;15.91;80.31;101481.47;4996862;28;96854;-28
2023/08/08 03:00:29;;;;;;;1.42;0.50;;;;;;;15.90;80.01;101467.94;4996769;28;97754;-27
2023/08/08 03:02:55;;;;;;;1.65;0.60;;;;;;;15.87;80.09;101462.69;4996491;28;97790;-27
2023/08/08 03:05:20;;;;;;;1.05;0.60;;;;;;;15.84;79.93;101462.91;4997082;28;96513;-26
2023/08/08 03:07:45;;;;;;;0.88;0.43;;;;;;;15.85;79.42;101462.81;4997237;28;96800;-27
2023/08/08 03:10:11;;;;;;;1.23;0.55;;;;;;;15.85;79.64;101467.38;4996383;28;99291;-28
2023/08/08 03:12:37;;;;;;;0.63;0.35;;;;;;;15.79;79.31;101467.84;4996178;28;97311;-27
2023/08/08 03:15:04;;;;;;;1.35;0.50;;;;;;;15.77;78.98;101470.69;4994746;28;96564;-27
2023/08/08 03:17:29;;;;;;;0.25;0.25;;;;;;;15.81;78.71;101472.22;4995117;28;96903;-27
2023/08/08 03:19:55;;;;;;;1.30;0.75;;;;;;;15.78;78.80;101468.81;4995024;28;98980;-26
2023/08/08 03:22:20;;;;;;;0.57;0.32;;;;;;;15.78;78.76;101479.75;4996058;28;99100;-27
2023/08/08 03:24:46;;;;;;;1.30;0.57;;;;;;;15.74;77.96;101473.66;4996580;28;96585;-27
2023/08/08 03:27:11;;;;;;;0.65;0.50;;;;;;;15.74;78.26;101464.59;4994999;28;96893;-27
2023/08/08 03:29:36;;;;;;;0.50;0.30;;;;;;;15.73;77.34;101471.00;4996152;28;97850;-26
2023/08/08 03:32:03;;;;;;;1.00;0.40;;;;;;;15.73;77.41;101471.91;4996762;28;97303;-27
2023/08/08 03:34:29;;;;;;;1.85;0.80;;;;;;;15.71;77.51;101463.81;4996329;28;96572;-28
2023/08/08 03:36:55;;;;;;;0.70;0.47;;;;;;;15.67;77.13;101459.53;4996258;28;96753;-27
2023/08/08 03:39:20;;;;;;;1.50;0.50;;;;;;;15.68;77.30;101466.75;4995671;28;97971;-27
2023/08/08 03:41:46;;;;;;;0.55;0.20;;;;;;;15.72;77.18;101467.41;4996198;28;97605;-27
2023/08/08 03:44:12;;;;;;;0.40;0.40;;;;;;;15.74;76.69;101464.59;4995747;28;96817;-27
2023/08/08 03:46:37;;;;;;;0.80;0.43;;;;;;;15.74;76.94;101459.13;4996182;28;96841;-28
2023/08/08 03:49:03;;;;;;;0.50;0.40;;;;;;;15.71;76.07;101460.22;4995826;28;97620;-27
2023/08/08 03:51:28;;;;;;;1.48;0.40;;;;;;;15.66;76.52;101448.72;4994315;28;101214;-28
2023/08/08 03:53:54;;;;;;;0.75;0.43;;;;;;;15.71;76.58;101450.16;4996054;28;96441;-27
2023/08/08 03:56:19;;;;;;;1.30;0.47;;;;;;;15.70;76.01;101440.22;4996555;28;96751;-27
2023/08/08 03:58:45;;;;;;;0.50;0.38;;;;;;;15.70;76.24;101451.13;4994003;28;99647;-27
2023/08/08 04:01:10;;;;;;;0.45;0.30;;;;;;;15.73;75.97;101452.78;4994933;28;97348;-28
2023/08/08 04:03:36;;;;;;;0.55;0.38;;;;;;;15.73;75.87;101446.44;4995253;28;96499;-27
2023/08/08 04:06:02;;;;;;;4.80;0.47;;;;;;;15.71;75.71;101441.09;4995822;28;96858;-27
2023/08/08 04:08:27;;;;;;;0.52;0.40;;;;;;;15.64;74.39;101437.91;4995591;28;97978;-27
2023/08/08 04:10:53;;;;;;;0.75;0.50;;;;;;;15.71;75.11;101447.44;4995232;28;99150;-27
2023/08/08 04:13:19;;;;;;;0.70;0.30;;;;;;;15.64;74.17;101437.91;4994592;28;97160;-26
2023/08/08 04:15:44;;;;;;;0.32;0.20;;;;;;;15.64;74.68;101437.03;4995804;28;96756;-26
2023/08/08 04:18:10;;;;;;;0.25;0.25;;;;;;;15.64;74.23;101439.78;4993979;28;100838;-27
2023/08/08 04:20:35;;;;;;;1.70;0.43;;;;;;;15.69;74.06;101441.19;4995828;28;97319;-29
2023/08/08 04:23:01;;;;;;;1.08;0.40;;;;;;;15.67;74.37;101437.69;4995747;28;96471;-27
2023/08/08 04:25:27;;;;;;;1.05;0.60;;;;;;;15.67;74.55;101440.41;4994557;28;96770;-27
2023/08/08 04:27:53;;;;;;;1.58;0.52;;;;;;;15.67;74.73;101442.28;4993170;28;101133;-27
2023/08/08 04:30:18;;;;;;;3.60;0.47;;;;;;;15.65;74.61;101436.03;4993730;28;99599;-27
2023/08/08 04:32:45;;;;;;;0.50;0.30;;;;;;;15.71;74.73;101449.31;4995696;28;96634;-27
2023/08/08 04:35:10;;;;;;;2.85;0.50;;;;;;;15.66;74.88;101441.41;4995505;28;96812;-27
2023/08/08 04:37:36;;;;;;;0.30;0.30;;;;;;;15.72;74.73;101448.31;4994727;28;99473;-27
2023/08/08 04:40:01;;;;;;;1.83;0.38;;;;;;;15.71;74.57;101444.69;4995175;28;97268;-27
2023/08/08 04:42:26;;;;;;;0.98;0.50;;;;;;;15.68;74.42;101452.19;4995596;28;96704;-27
2023/08/08 04:44:52;;;;;;;0.85;0.43;;;;;;;15.65;74.50;101445.09;4995448;28;97310;-28
2023/08/08 04:47:17;;;;;;;1.80;0.60;;;;;;;15.68;74.24;101450.38;4993590;28;99404;-27
2023/08/08 04:49:43;;;;;;;2.38;0.40;;;;;;;15.66;74.42;101448.72;4993340;28;100804;-26
2023/08/08 04:52:08;;;;;;;0.60;0.40;;;;;;;15.66;74.11;101449.59;4995180;28;96658;-27
2023/08/08 04:54:33;;;;;;;1.98;0.50;;;;;;;15.66;73.72;101448.72;4995308;28;96761;-27
2023/08/08 04:56:59;;;;;;;0.50;0.40;;;;;;;15.73;73.80;101454.63;4994550;28;99481;-27
2023/08/08 04:59:24;;;;;;;2.30;0.50;;;;;;;15.72;73.90;101461.97;4994875;28;97660;-27
2023/08/08 05:01:49;;;;;;;1.05;0.57;;;;;;;15.70;74.38;101445.66;4995390;28;96608;-27
2023/08/08 05:04:15;;;;;;;0.50;0.30;;;;;;;15.70;72.52;101459.31;4994851;28;96885;-26
2023/08/08 05:06:40;;;;;;;0.25;0.20;;;;;;;15.72;73.79;101456.50;4994536;28;99217;-27
2023/08/08 05:09:09;;;;;;;1.20;0.30;;;;;;;15.69;73.60;101454.81;4993682;28;98801;-27
2023/08/08 05:11:34;;;;;;;1.98;0.52;;;;;;;15.65;73.17;101445.09;4993693;28;96861;-27
2023/08/08 05:14:00;;;;;;;0.82;0.32;;;;;;;15.69;73.21;101456.69;4994486;28;96822;-26
2023/08/08 05:16:25;;;;;;;0.20;0.20;;;;;;;15.71;73.20;101458.34;4994028;28;98860;-27
2023/08/08 05:18:50;;;;;;;2.10;0.63;;;;;;;15.74;73.23;101453.66;4994801;28;97780;-28
2023/08/08 05:21:16;;;;;;;1.25;0.28;;;;;;;15.74;73.22;101456.41;4994972;28;96739;-27
2023/08/08 05:23:41;;;;;;;1.23;0.43;;;;;;;15.77;73.28;101467.09;4995000;28;96787;-27
2023/08/08 05:26:06;;;;;;;1.95;0.60;;;;;;;15.77;73.23;101454.28;4994219;28;97922;-27
2023/08/08 05:28:32;;;;;;;0.95;0.40;;;;;;;15.77;73.44;101464.34;4994412;28;97797;-27
2023/08/08 05:30:59;;;;;;;1.13;0.47;;;;;;;15.84;73.46;101471.09;4994989;28;96674;-27
2023/08/08 05:33:24;;;;;;;0.95;0.40;;;;;;;15.85;73.22;101468.28;4993646;28;96752;-26
2023/08/08 05:35:49;;;;;;;0.90;0.30;;;;;;;15.88;73.54;101468.03;4994430;28;97921;-27
2023/08/08 05:38:15;;;;;;;0.75;0.40;;;;;;;15.91;73.47;101462.34;4994049;28;97545;-27
2023/08/08 05:40:41;;;;;;;1.58;0.52;;;;;;;16.00;73.46;101468.13;4994004;28;96673;-27
2023/08/08 05:43:08;;;;;;;0.73;0.30;;;;;;;15.97;73.49;101460.13;4993160;28;96916;-28
2023/08/08 05:45:33;;;;;;;0.60;0.47;;;;;;;15.97;73.39;101471.06;4992463;28;100831;-27
2023/08/08 05:48:00;;;;;;;1.02;0.40;;;;;;;15.93;73.33;101473.16;4993920;28;99221;-27
2023/08/08 05:50:27;;;;;;;0.45;0.32;;;;;;;15.86;73.60;101470.00;4993108;28;96776;-27
2023/08/08 05:52:52;;;;;;;0.55;0.30;;;;;;;15.85;73.01;101459.19;4993047;28;96787;-27
2023/08/08 05:55:17;;;;;;;0.40;0.15;;;;;;;15.82;73.35;101463.00;4993930;28;97946;-26
2023/08/08 05:57:43;;;;;;;0.30;0.22;;;;;;;15.87;73.07;101468.13;4994366;28;98592;-26
2023/08/08 06:00:11;;;;;;;1.10;0.55;;;;;;;15.96;72.82;101475.66;4993915;28;97084;-27
2023/08/08 06:02:37;;;;;;;2.97;0.43;;;;;;;16.02;72.86;101464.28;4993613;28;96867;-27
2023/08/08 06:05:03;;;;;;;0.85;0.40;;;;;;;16.10;72.09;101478.25;4990441;28;101253;-27
2023/08/08 06:07:29;;;;;;;0.30;0.30;;;;;;;16.18;72.33;101477.66;4992107;28;101806;-27
2023/08/08 06:09:54;;;;;;;0.43;0.28;;;;;;;16.24;72.61;101471.75;4993921;28;96794;-27
2023/08/08 06:12:20;;;;;;;0.63;0.22;;;;;;;16.27;72.05;101471.50;4994287;28;96814;-27
2023/08/08 06:14:45;;;;;;;1.88;0.43;;;;;;;16.38;71.49;101484.38;4993462;28;98754;-27
2023/08/08 06:17:10;;;;;;;2.13;0.40;;;;;;;16.42;71.80;101477.69;4992304;28;100789;-28
2023/08/08 06:19:36;;;;;;;2.05;0.28;;;;;;;16.51;71.41;101482.44;4993034;28;96713;-27
2023/08/08 06:22:03;;;;;;;0.63;0.32;;;;;;;16.56;70.51;101490.28;4993934;28;96762;-27
2023/08/08 06:24:28;;;;;;;0.85;0.20;;;;;;;16.62;70.62;101488.97;4992160;28;100923;-31
2023/08/08 06:26:53;;;;;;;0.65;0.40;;;;;;;16.67;69.63;101494.94;4995133;28;97330;-29
2023/08/08 06:29:19;;;;;;;0.95;0.40;;;;;;;16.72;69.60;101488.13;4994497;28;96952;-28
2023/08/08 06:31:44;;;;;;;1.15;0.43;;;;;;;16.77;69.35;101487.75;4994768;28;97322;-27
2023/08/08 06:34:10;;;;;;;0.32;0.28;;;;;;;16.90;69.25;101482.22;4994619;28;97337;-32
2023/08/08 06:36:35;;;;;;;1.60;0.35;;;;;;;17.01;68.21;101474.06;4994584;28;97623;-32
2023/08/08 06:39:00;;;;;;;1.25;0.38;;;;;;;17.18;68.09;101481.81;4995199;28;96853;-27
2023/08/08 06:41:26;;;;;;;1.25;0.45;;;;;;;17.26;67.97;101469.38;4995057;28;97252;-27
2023/08/08 06:43:51;;;;;;;0.47;0.30;;;;;;;17.30;67.44;101476.34;4994806;28;97787;-30
2023/08/08 06:46:16;;;;;;;0.43;0.30;;;;;;;17.23;67.28;101477.81;4993353;28;101267;-26
2023/08/08 06:48:43;;;;;;;0.30;0.20;;;;;;;17.14;67.26;101483.06;4994881;28;97260;-27
2023/08/08 06:51:08;;;;;;;0.65;0.20;;;;;;;17.06;67.29;101482.78;4995407;28;96784;-27
2023/08/08 06:53:34;;;;;;;1.35;0.28;;;;;;;16.94;67.36;101461.84;4996433;28;97477;-27
2023/08/08 06:55:59;;;;;;;0.52;0.22;;;;;;;17.00;67.49;101477.78;4996737;28;97893;-27
2023/08/08 06:58:24;;;;;;;0.90;0.43;;;;;;;17.08;67.18;101478.06;4997054;28;96665;-27
2023/08/08 07:00:50;;;;;;;0.95;0.20;;;;;;;17.17;66.87;101469.13;4997082;28;96799;-28
2023/08/08 07:03:16;;;;;;;3.40;0.30;;;;;;;17.20;65.55;101478.94;4994807;28;101088;-27
2023/08/08 07:05:41;;;;;;;0.10;0.10;;;;;;;17.32;66.93;101467.00;4996390;28;99606;-27
2023/08/08 07:08:08;;;;;;;0.77;0.35;;;;;;;17.56;65.76;101485.19;4996683;28;96606;-27
2023/08/08 07:10:34;;;;;;;0.40;0.20;;;;;;;17.65;66.16;101478.97;4997012;28;96787;-27
2023/08/08 07:12:59;;;;;;;1.25;0.43;;;;;;;17.82;64.90;101474.88;4996463;28;97470;-27
2023/08/08 07:15:24;;;;;;;2.47;0.38;;;;;;;17.83;64.75;101466.56;4996665;28;97879;-27
2023/08/08 07:17:50;;;;;;;1.67;0.28;;;;;;;17.95;64.92;101469.28;4996297;28;96721;-27
2023/08/08 07:20:15;;;;;;;0.47;0.28;;;;;;;18.12;63.69;101481.59;4996739;28;96810;-27
2023/08/08 07:22:41;;;;;;;2.08;0.50;;;;;;;18.21;63.50;101473.47;4996137;28;98009;-27
2023/08/08 07:25:07;;;;;;;0.52;0.22;;;;;;;18.24;62.37;101462.22;4996340;28;97753;-27
2023/08/08 07:27:32;;;;;;;2.03;0.75;;;;;;;18.48;63.63;101471.25;4996302;28;96460;-27
2023/08/08 07:29:58;;;;;;;1.50;0.40;;;;;;;18.53;62.87;101460.75;4996563;28;96779;-27
2023/08/08 07:32:24;;;;;;;0.30;0.17;;;;;;;18.41;63.06;101463.53;4996105;28;98110;-27
2023/08/08 07:34:49;;;;;;;0.43;0.20;;;;;;;18.41;63.31;101458.03;4995402;28;97875;-27
2023/08/08 07:37:15;;;;;;;0.40;0.40;;;;;;;18.42;64.09;101467.13;4996105;28;96657;-26
2023/08/08 07:39:40;;;;;;;0.52;0.30;;;;;;;18.35;63.81;101464.06;4996164;28;96865;-27
2023/08/08 07:42:06;;;;;;;0.45;0.22;;;;;;;18.29;63.57;101467.31;4995679;28;97941;-27
2023/08/08 07:44:34;;;;;;;0.13;0.10;;;;;;;18.19;63.83;101461.75;4994237;28;100756;-27
2023/08/08 07:46:59;;;;;;;0.52;0.20;;;;;;;18.22;63.26;101461.47;4994726;28;96568;-26
2023/08/08 07:49:25;;;;;;;0.90;0.40;;;;;;;18.30;62.77;101462.69;4996241;28;96903;-27
2023/08/08 07:51:50;;;;;;;0.30;0.20;;;;;;;18.48;62.67;101466.63;4995679;28;97403;-27
2023/08/08 07:54:15;;;;;;;1.02;0.32;;;;;;;18.40;61.40;101456.31;4995944;28;97886;-27
2023/08/08 07:56:42;;;;;;;0.28;0.25;;;;;;;18.63;62.23;101472.69;4996185;28;96624;-27
2023/08/08 07:59:09;;;;;;;1.27;0.40;;;;;;;18.62;60.65;101468.22;4994999;28;96907;-27
2023/08/08 08:01:34;;;;;;;2.83;0.20;;;;;;;18.54;62.01;101462.47;4994204;28;101123;-27
2023/08/08 08:04:00;;;;;;;0.60;0.20;;;;;;;18.62;60.71;101459.97;4993979;28;99369;-27
2023/08/08 08:06:25;;;;;;;0.32;0.20;;;;;;;18.66;60.39;101459.56;4994019;28;96770;-27
2023/08/08 08:08:50;;;;;;;0.20;0.17;;;;;;;18.84;59.34;101457.13;4995607;28;96840;-26
2023/08/08 08:11:16;;;;;;;0.30;0.10;;;;;;;19.12;60.44;101459.34;4995635;28;98027;-27
2023/08/08 08:13:42;;;;;;;0.50;0.17;;;;;;;19.30;60.57;101468.69;4993998;28;100986;-28
2023/08/08 08:16:07;;;;;;;1.02;0.40;;;;;;;19.11;60.38;101458.47;4995934;28;96531;-28
2023/08/08 08:18:33;;;;;;;0.45;0.22;;;;;;;19.06;60.40;101461.59;4994251;28;96884;-26
2023/08/08 08:20:59;;;;;;;0.47;0.17;;;;;;;19.18;58.61;101470.66;4993797;28;100935;-27
2023/08/08 08:23:24;;;;;;;0.55;0.25;;;;;;;19.33;59.60;101462.94;4995500;28;100189;-27
2023/08/08 08:25:50;;;;;;;0.52;0.15;;;;;;;19.34;58.70;101456.44;4995650;28;96652;-27
2023/08/08 08:28:15;;;;;;;0.68;0.38;;;;;;;19.45;56.61;101466.44;4995551;28;96762;-26
2023/08/08 08:30:41;;;;;;;1.23;0.50;;;;;;;19.65;57.90;101461.94;4994503;28;99529;-26
2023/08/08 08:33:07;;;;;;;0.60;0.30;;;;;;;19.80;57.27;101466.06;4995713;28;97021;-26
2023/08/08 08:35:33;;;;;;;0.85;0.43;;;;;;;;;;4994089;28;96669;-26
2023/08/08 08:37:58;;;;;;;1.95;0.22;;;;;;;19.82;57.14;101469.53;4995201;28;96500;-28
2023/08/08 08:40:24;;;;;;;3.13;0.40;;;;;;;19.62;56.11;101463.09;4995561;28;97317;-27
2023/08/08 08:42:50;;;;;;;0.10;0.10;;;;;;;19.56;56.98;101455.38;4995181;28;97424;-27
2023/08/08 08:45:21;;;;;;;0.60;0.20;;;;;;;19.67;57.74;101468.16;4993249;28;96829;-27
2023/08/08 08:47:48;;;;;;;1.20;0.40;;;;;;;19.65;56.79;101456.44;4995501;28;96442;-27
2023/08/08 08:50:15;;;;;;;0.20;0.20;;;;;;;19.58;56.53;101471.75;4993304;28;100904;-27
2023/08/08 08:52:42;;;;;;;0.43;0.30;;;;;;;19.64;55.81;101466.56;4993373;28;98877;-26
2023/08/08 08:55:08;;;;;;;1.50;0.40;;;;;;;19.93;57.05;101483.19;4993275;28;96656;-27
2023/08/08 08:57:34;;;;;;;0.30;0.28;;;;;;;19.80;56.78;101477.06;4994899;28;96738;-26
2023/08/08 08:59:59;;;;;;;1.98;0.40;;;;;;;19.64;57.01;101473.91;4993366;28;101010;-26
2023/08/08 09:02:25;;;;;;;0.80;0.40;;;;;;;19.36;56.95;101470.03;4994639;28;97255;-26
2023/08/08 09:04:51;;;;;;;1.70;0.35;;;;;;;19.20;58.28;101487.88;4994926;28;96615;-26
2023/08/08 09:07:20;;;;;;;0.40;0.22;;;;;;;19.44;57.64;101484.81;4993526;28;96571;-27
2023/08/08 09:09:46;;;;;;;1.05;0.35;;;;;;;19.82;57.45;101469.53;4993315;28;101137;-26
2023/08/08 09:12:12;;;;;;;0.22;0.20;;;;;;;20.14;57.30;101474.84;4994902;28;98844;-27
2023/08/08 09:14:41;;;;;;;0.50;0.35;;;;;;;20.27;56.49;101468.22;4993370;28;96673;-27
2023/08/08 09:17:11;;;;;;;1.85;0.20;;;;;;;20.27;57.13;101490.22;4993443;28;96988;-26
2023/08/08 09:19:36;;;;;;;0.65;0.40;;;;;;;20.05;56.63;101475.69;4993621;28;100024;-27
2023/08/08 09:22:02;;;;;;;0.88;0.25;;;;;;;19.85;56.09;101482.13;4994617;28;97788;-27
2023/08/08 09:24:27;;;;;;;0.32;0.22;;;;;;;19.91;54.63;101485.22;4993350;28;96577;-27
2023/08/08 09:26:53;;;;;;;0.88;0.25;;;;;;;20.10;56.11;101489.03;4994920;28;96812;-27
2023/08/08 09:29:18;;;;;;;1.15;0.45;;;;;;;20.11;55.78;101482.50;4994516;28;98039;-27
2023/08/08 09:31:47;;;;;;;0.55;0.30;;;;;;;20.06;55.50;101471.06;4992874;28;100699;-27
2023/08/08 09:34:12;;;;;;;0.17;0.17;;;;;;;20.08;55.89;101477.28;4993306;28;96497;-27
2023/08/08 09:36:38;;;;;;;0.63;0.35;;;;;;;19.91;56.38;101484.34;4995246;28;96741;-26
2023/08/08 09:39:04;;;;;;;3.33;0.75;;;;;;;19.87;57.03;101489.22;4994222;28;97741;-26
2023/08/08 09:41:31;;;;;;;1.80;0.47;;;;;;;19.73;57.99;101489.63;4992879;28;100840;-28
2023/08/08 09:43:59;;;;;;;1.27;0.43;;;;;;;19.86;56.72;101482.00;4992321;28;97481;-27
2023/08/08 09:46:24;;;;;;;0.45;0.30;;;;;;;20.18;56.40;101486.44;4992999;28;96815;-26
2023/08/08 09:48:50;;;;;;;0.65;0.30;;;;;;;20.31;56.37;101470.53;4992660;28;99689;-27
2023/08/08 09:51:16;;;;;;;1.27;0.35;;;;;;;20.23;56.04;101481.38;4994160;28;97760;-27
2023/08/08 09:53:42;;;;;;;0.50;0.30;;;;;;;20.13;57.02;101486.00;4994736;28;96500;-26
2023/08/08 09:56:08;;;;;;;1.95;0.50;;;;;;;20.29;57.07;101488.22;4976528;28;96835;-27
2023/08/08 09:58:34;;;;;;;1.27;0.20;;;;;;;20.35;56.15;101480.25;4995381;28;97938;-27
2023/08/08 10:00:59;;;;;;;0.40;0.20;;;;;;;20.35;55.69;101479.38;4998213;28;97247;-26
2023/08/08 10:03:26;;;;;;;0.68;0.30;;;;;;;20.32;56.23;101494.28;4997651;28;96381;-27
2023/08/08 10:05:52;;;;;;;1.02;0.40;;;;;;;20.41;56.36;101477.94;4996245;28;96828;-27
2023/08/08 10:08:18;;;;;;;0.47;0.35;;;;;;;20.59;55.56;101492.75;4996947;28;97580;-26
2023/08/08 10:10:45;;;;;;;0.68;0.30;;;;;;;20.81;56.14;101480.59;4996023;28;100715;-28
2023/08/08 10:13:20;;;;;;;0.32;0.32;;;;;;;20.93;53.80;101487.69;4996356;28;96727;-27
2023/08/08 10:15:45;;;;;;;0.60;0.10;;;;;;;20.91;54.30;101483.34;4996295;28;96828;-28
2023/08/08 10:18:13;;;;;;;0.52;0.32;;;;;;;20.93;54.36;101493.19;4997266;28;97956;-27
2023/08/08 10:20:39;;;;;;;1.08;0.60;;;;;;;20.99;54.43;101486.22;4995733;28;100853;-27
2023/08/08 10:23:07;;;;;;;0.10;0.10;;;;;;;20.87;54.43;101476.38;4997763;28;96474;-27
2023/08/08 10:25:32;;;;;;;2.25;0.40;;;;;;;20.79;54.12;101471.59;4996360;28;96982;-27
2023/08/08 10:28:13;;;;;;;1.17;0.70;;;;;;;20.79;54.21;101480.72;4997093;28;97892;-27
2023/08/08 10:30:46;;;;;;;0.75;0.30;;;;;;;20.94;54.32;101488.56;4995580;28;100831;-26
2023/08/08 10:33:19;;;;;;;4.55;0.50;;;;;;;21.06;55.54;101486.50;4995553;28;96579;-27
2023/08/08 10:36:03;;;;;;;0.28;0.25;;;;;;;21.13;55.22;101494.03;4996074;28;96833;-26
2023/08/08 10:38:43;;;;;;;0.82;0.43;;;;;;;21.37;54.62;101478.91;4995305;28;100905;-27
2023/08/08 10:41:13;;;;;;;0.40;0.20;;;;;;;21.61;53.79;101482.03;4997094;28;97909;-28
2023/08/08 10:43:46;;;;;;;2.08;0.30;;;;;;;21.84;53.49;101487.16;4995428;28;96624;-27
2023/08/08 10:46:11;;;;;;;0.30;0.30;;;;;;;21.99;53.13;101482.00;4997326;28;96488;-28
2023/08/08 10:48:37;;;;;;;1.15;0.32;;;;;;;22.16;52.42;101485.81;4996783;28;97935;-26
2023/08/08 10:51:05;;;;;;;0.77;0.30;;;;;;;22.33;52.79;101490.53;4997003;28;98382;-27
2023/08/08 10:53:31;;;;;;;0.60;0.43;;;;;;;22.32;51.64;101482.44;4995727;28;96732;-26
2023/08/08 10:56:03;;;;;;;0.38;0.22;;;;;;;22.17;53.01;101485.69;4996793;28;96839;-27
2023/08/08 10:58:37;;;;;;;1.65;0.50;;;;;;;21.98;53.64;101483.03;4994790;28;100919;-28
2023/08/08 11:01:05;;;;;;;0.93;0.40;;;;;;;22.06;53.52;101477.59;4995156;28;101207;-27
2023/08/08 11:03:30;;;;;;;2.20;0.40;;;;;;;22.23;52.22;101492.50;4995288;28;96635;-27
2023/08/08 11:05:56;;;;;;;2.75;0.43;;;;;;;22.22;51.88;101482.50;4997015;28;96789;-27
2023/08/08 11:08:22;;;;;;;0.55;0.40;;;;;;;22.38;52.34;101481.78;4996319;28;99560;-27
2023/08/08 11:10:52;;;;;;;0.52;0.45;;;;;;;22.25;52.40;101487.69;4994864;28;100931;-27
2023/08/08 11:13:17;;;;;;;0.63;0.40;;;;;;;22.03;53.94;101494.47;4995291;28;96569;-27
2023/08/08 11:15:43;;;;;;;1.65;0.40;;;;;;;21.66;52.86;101484.34;4997181;28;96793;-27
2023/08/08 11:18:09;;;;;;;3.63;0.63;;;;;;;21.53;53.25;101487.44;4996047;28;97952;-27
2023/08/08 11:20:36;;;;;;;0.50;0.30;;;;;;;21.45;53.50;101487.31;4994764;28;100688;-27